Time;durP1;ratioP1;P1;durP2;ratioP2;P2;SDS_P1;SDS_P2;PMS_P1;PMS_P2;Temp;Humidity;BMP_temperature;BMP_pressure;BME280_temperature;BME280_humidity;BME280_pressure;Samples;Min_cycle;Max_cycle;Signal;HPM_P1;HPM_P2
2022/03/20 00:00:29;;;;;;;28.47;18.00;;;;;;;;;;5031769;28;20435;-75
2022/03/20 00:02:55;;;;;;;26.83;17.93;;;;;;;;;;5033077;28;20407;-75
2022/03/20 00:05:22;;;;;;;24.17;17.70;;;;;;;;;;5033124;28;20406;-75
2022/03/20 00:07:48;;;;;;;28.67;17.40;;;;;;;;;;5033082;28;20503;-75
2022/03/20 00:10:15;;;;;;;27.83;18.43;;;;;;;;;;5032830;28;20586;-75
2022/03/20 00:12:41;;;;;;;29.50;17.73;;;;;;;;;;5033112;28;20799;-74
2022/03/20 00:15:08;;;;;;;27.67;17.60;;;;;;;;;;5033153;28;20405;-74
2022/03/20 00:17:34;;;;;;;27.00;17.30;;;;;;;;;;5032836;28;20402;-74
2022/03/20 00:20:00;;;;;;;26.50;17.90;;;;;;;;;;5033215;28;20909;-75
2022/03/20 00:22:26;;;;;;;27.97;17.93;;;;;;;;;;5034186;28;20441;-75
2022/03/20 00:24:53;;;;;;;24.73;18.53;;;;;;;;;;5033086;28;20480;-74
2022/03/20 00:27:19;;;;;;;25.30;18.90;;;;;;;;;;5032736;28;20445;-74
2022/03/20 00:29:45;;;;;;;29.03;18.80;;;;;;;;;;5032879;28;20793;-74
2022/03/20 00:32:12;;;;;;;24.40;16.90;;;;;;;;;;5034623;28;20497;-74
2022/03/20 00:34:39;;;;;;;27.10;16.90;;;;;;;;;;5036855;28;20770;-74
2022/03/20 00:37:06;;;;;;;23.67;17.53;;;;;;;;;;5036979;28;20402;-75
2022/03/20 00:39:32;;;;;;;23.73;16.10;;;;;;;;;;5036681;28;20854;-74
2022/03/20 00:41:58;;;;;;;30.80;17.80;;;;;;;;;;5036918;28;20404;-74
2022/03/20 00:44:24;;;;;;;27.27;17.80;;;;;;;;;;5036553;28;20394;-74
2022/03/20 00:46:50;;;;;;;25.53;17.33;;;;;;;;;;5036502;28;20454;-74
2022/03/20 00:49:17;;;;;;;30.47;16.87;;;;;;;;;;5036234;28;20418;-74
2022/03/20 00:51:43;;;;;;;24.03;16.60;;;;;;;;;;5036281;28;20410;-74
2022/03/20 00:54:10;;;;;;;24.90;16.37;;;;;;;;;;5036371;28;20414;-74
2022/03/20 00:56:37;;;;;;;28.63;18.20;;;;;;;;;;5036337;28;20402;-74
2022/03/20 00:59:03;;;;;;;21.70;16.40;;;;;;;;;;5035998;28;20418;-74
2022/03/20 01:01:29;;;;;;;24.23;16.47;;;;;;;;;;5036228;28;20525;-74
2022/03/20 01:03:56;;;;;;;25.53;16.07;;;;;;;;;;5035920;28;20410;-74
2022/03/20 01:06:22;;;;;;;25.20;16.40;;;;;;;;;;5036336;28;20406;-74
2022/03/20 01:08:55;;;;;;;23.83;17.20;;;;;;;;;;5036422;28;20406;-74
2022/03/20 01:11:21;;;;;;;25.63;17.70;;;;;;;;;;5036003;28;20386;-74
2022/03/20 01:13:47;;;;;;;22.30;16.97;;;;;;;;;;5036022;28;20402;-74
2022/03/20 01:16:13;;;;;;;23.03;16.47;;;;;;;;;;5034703;28;20418;-74
2022/03/20 01:18:39;;;;;;;28.17;17.27;;;;;;;;;;5035839;28;20398;-74
2022/03/20 01:21:07;;;;;;;24.47;16.40;;;;;;;;;;5073338;23;20524;-77
2022/03/20 01:23:33;;;;;;;23.57;16.43;;;;;;;;;;5043556;28;20398;-77
2022/03/20 01:25:59;;;;;;;22.33;15.67;;;;;;;;;;5036061;28;20395;-77
2022/03/20 01:28:26;;;;;;;24.77;16.57;;;;;;;;;;5036087;28;20815;-76
2022/03/20 01:30:53;;;;;;;29.20;17.23;;;;;;;;;;5036190;28;20434;-77
2022/03/20 01:33:19;;;;;;;24.93;17.20;;;;;;;;;;5035206;28;20919;-77
2022/03/20 01:35:46;;;;;;;29.07;17.47;;;;;;;;;;5035656;28;20410;-77
2022/03/20 01:38:18;;;;;;;31.53;19.47;;;;;;;;;;5036032;28;20394;-77
2022/03/20 01:40:44;;;;;;;27.97;18.73;;;;;;;;;;5035654;28;20421;-77
2022/03/20 01:43:10;;;;;;;28.20;19.30;;;;;;;;;;5033558;28;20453;-77
2022/03/20 01:45:36;;;;;;;29.23;20.00;;;;;;;;;;5035759;28;20521;-76
2022/03/20 01:48:03;;;;;;;36.80;23.00;;;;;;;;;;5035523;28;20521;-77
2022/03/20 01:50:29;;;;;;;28.97;20.20;;;;;;;;;;5035592;28;20450;-77
2022/03/20 01:52:57;;;;;;;45.60;21.10;;;;;;;;;;5034455;28;20409;-77
2022/03/20 01:55:24;;;;;;;30.60;20.47;;;;;;;;;;5035861;28;20749;-77
2022/03/20 01:57:50;;;;;;;30.97;20.67;;;;;;;;;;5035712;28;20399;-77
2022/03/20 02:00:17;;;;;;;34.33;21.83;;;;;;;;;;5035422;28;20422;-77
2022/03/20 02:02:43;;;;;;;29.13;20.70;;;;;;;;;;5035300;28;20398;-77
2022/03/20 02:05:10;;;;;;;34.83;24.33;;;;;;;;;;5035759;28;20956;-77
2022/03/20 02:07:37;;;;;;;32.60;23.03;;;;;;;;;;5035688;28;20464;-77
2022/03/20 02:10:03;;;;;;;31.20;21.30;;;;;;;;;;5035365;28;20434;-77
2022/03/20 02:12:30;;;;;;;37.70;23.30;;;;;;;;;;5035471;28;20405;-77
2022/03/20 02:14:58;;;;;;;34.43;21.63;;;;;;;;;;5035414;28;20406;-76
2022/03/20 02:17:26;;;;;;;40.13;24.37;;;;;;;;;;5035027;28;20509;-77
2022/03/20 02:19:52;;;;;;;39.63;24.97;;;;;;;;;;5034994;28;20434;-77
2022/03/20 02:22:18;;;;;;;34.70;22.07;;;;;;;;;;5035013;28;20402;-76
2022/03/20 02:24:48;;;;;;;30.07;21.40;;;;;;;;;;5034758;28;20410;-76
2022/03/20 02:27:18;;;;;;;28.00;19.50;;;;;;;;;;5035076;28;20462;-77
2022/03/20 02:29:50;;;;;;;32.70;22.10;;;;;;;;;;5035088;28;20426;-77
2022/03/20 02:32:18;;;;;;;32.07;20.63;;;;;;;;;;5034702;28;20402;-77
2022/03/20 02:34:48;;;;;;;30.90;21.83;;;;;;;;;;5043281;28;20429;-76
2022/03/20 02:37:15;;;;;;;27.17;19.70;;;;;;;;;;5054468;28;20421;-76
2022/03/20 02:39:41;;;;;;;33.33;21.90;;;;;;;;;;5054440;28;20425;-76
2022/03/20 02:42:08;;;;;;;31.83;21.10;;;;;;;;;;5054521;28;20501;-77
2022/03/20 02:44:55;;;;;;;34.47;21.77;;;;;;;;;;5054441;28;20806;-76
2022/03/20 02:47:26;;;;;;;36.67;22.47;;;;;;;;;;5054339;28;20502;-76
2022/03/20 02:50:03;;;;;;;31.13;21.90;;;;;;;;;;5052761;28;20429;-76
2022/03/20 02:52:43;;;;;;;33.20;21.00;;;;;;;;;;5054051;28;20444;-76
2022/03/20 02:55:09;;;;;;;36.53;23.40;;;;;;;;;;5054283;28;20378;-76
2022/03/20 02:57:35;;;;;;;29.13;19.80;;;;;;;;;;5054285;28;20417;-76
2022/03/20 03:00:04;;;;;;;32.07;20.50;;;;;;;;;;5053977;28;20417;-76
2022/03/20 03:02:31;;;;;;;31.20;19.97;;;;;;;;;;5053852;28;20489;-76
2022/03/20 03:05:00;;;;;;;32.27;20.03;;;;;;;;;;5054114;28;20412;-76
2022/03/20 03:07:30;;;;;;;29.87;19.80;;;;;;;;;;5053894;28;20445;-77
2022/03/20 03:12:41;;;;;;;35.70;22.67;;;;;;;;;;5053805;28;20466;-77
2022/03/20 03:15:20;;;;;;;30.20;20.47;;;;;;;;;;5053718;28;20386;-77
2022/03/20 03:17:46;;;;;;;29.67;20.63;;;;;;;;;;5052557;28;20436;-76
2022/03/20 03:20:13;;;;;;;31.80;20.50;;;;;;;;;;5053605;28;20975;-76
2022/03/20 03:22:39;;;;;;;29.43;20.23;;;;;;;;;;5052487;28;20406;-77
2022/03/20 03:25:06;;;;;;;32.20;21.33;;;;;;;;;;5052289;28;20795;-76
2022/03/20 03:27:32;;;;;;;31.30;20.87;;;;;;;;;;5053619;28;20886;-76
2022/03/20 03:29:58;;;;;;;31.50;19.67;;;;;;;;;;5053382;28;20544;-76
2022/03/20 03:32:24;;;;;;;33.03;20.00;;;;;;;;;;5053713;28;20397;-77
2022/03/20 03:37:35;;;;;;;32.37;22.60;;;;;;;;;;5054067;28;20409;-76
2022/03/20 03:40:03;;;;;;;37.77;21.40;;;;;;;;;;5053461;28;20926;-76
2022/03/20 03:42:30;;;;;;;30.70;19.63;;;;;;;;;;5053167;28;20390;-76
2022/03/20 03:44:56;;;;;;;33.07;21.63;;;;;;;;;;5053158;28;20397;-76
2022/03/20 03:47:24;;;;;;;37.37;21.60;;;;;;;;;;5053528;28;20437;-76
2022/03/20 03:49:50;;;;;;;33.27;20.60;;;;;;;;;;5051838;28;20425;-76
2022/03/20 03:52:16;;;;;;;28.10;20.47;;;;;;;;;;5051963;28;20433;-76
2022/03/20 03:54:42;;;;;;;27.93;20.63;;;;;;;;;;5053086;28;20782;-76
2022/03/20 03:57:08;;;;;;;32.23;20.43;;;;;;;;;;5053458;28;20401;-76
2022/03/20 03:59:34;;;;;;;34.70;19.83;;;;;;;;;;5053051;28;20421;-76
2022/03/20 04:02:00;;;;;;;25.63;19.57;;;;;;;;;;5052994;28;20397;-76
2022/03/20 04:04:27;;;;;;;29.90;19.23;;;;;;;;;;5049289;28;20429;-76
2022/03/20 04:06:54;;;;;;;28.20;20.30;;;;;;;;;;5040909;28;20486;-76
2022/03/20 04:09:20;;;;;;;32.10;21.07;;;;;;;;;;5031801;28;20406;-76
2022/03/20 04:11:46;;;;;;;30.23;20.43;;;;;;;;;;5043175;28;20866;-77
2022/03/20 04:14:12;;;;;;;33.77;21.00;;;;;;;;;;5052894;28;20909;-76
2022/03/20 04:16:38;;;;;;;37.97;24.03;;;;;;;;;;5052753;28;20401;-76
2022/03/20 04:19:04;;;;;;;38.03;23.80;;;;;;;;;;5052949;28;20409;-76
2022/03/20 04:21:30;;;;;;;30.43;21.07;;;;;;;;;;5051548;28;20858;-76
2022/03/20 04:23:56;;;;;;;31.90;20.10;;;;;;;;;;5052722;28;20452;-76
2022/03/20 04:26:24;;;;;;;30.83;20.07;;;;;;;;;;5052620;28;20430;-76
2022/03/20 04:28:51;;;;;;;28.40;20.03;;;;;;;;;;5052811;28;20405;-76
2022/03/20 04:31:17;;;;;;;34.43;19.63;;;;;;;;;;5052643;28;20441;-77
2022/03/20 04:33:48;;;;;;;31.13;20.10;;;;;;;;;;5051349;28;20771;-76
2022/03/20 04:36:14;;;;;;;29.57;20.97;;;;;;;;;;5052976;28;20467;-76
2022/03/20 04:38:41;;;;;;;32.70;18.90;;;;;;;;;;5051700;28;20926;-76
2022/03/20 04:41:07;;;;;;;24.90;18.87;;;;;;;;;;5052845;28;20475;-75
2022/03/20 04:43:33;;;;;;;30.00;19.07;;;;;;;;;;5052736;28;20397;-76
2022/03/20 04:46:00;;;;;;;29.30;19.10;;;;;;;;;;5051098;28;20995;-76
2022/03/20 04:59:26;;;;;;;30.77;19.50;;;;;;;;;;5035198;28;20516;-76
2022/03/20 05:01:52;;;;;;;28.20;19.10;;;;;;;;;;5032736;28;20414;-77
2022/03/20 05:04:18;;;;;;;31.13;19.00;;;;;;;;;;5032364;28;20411;-75
2022/03/20 05:06:44;;;;;;;28.13;18.73;;;;;;;;;;5032531;28;20492;-76
2022/03/20 05:14:40;;;;;;;30.30;19.20;;;;;;;;;;5032789;28;20440;-78
2022/03/20 05:17:10;;;;;;;33.73;21.37;;;;;;;;;;5032640;28;20497;-77
2022/03/20 05:19:36;;;;;;;32.97;20.47;;;;;;;;;;5033237;28;20450;-77
2022/03/20 05:22:06;;;;;;;27.13;18.73;;;;;;;;;;5036197;28;20398;-76
2022/03/20 05:24:35;;;;;;;28.13;19.90;;;;;;;;;;5036025;28;20875;-76
2022/03/20 05:27:02;;;;;;;30.90;20.20;;;;;;;;;;5036044;28;20563;-76
2022/03/20 05:29:28;;;;;;;29.80;21.03;;;;;;;;;;5035932;28;20450;-76
2022/03/20 05:31:54;;;;;;;33.50;21.00;;;;;;;;;;5036013;28;20399;-76
2022/03/20 05:34:20;;;;;;;32.20;22.37;;;;;;;;;;5035796;28;20398;-76
2022/03/20 05:36:47;;;;;;;33.10;21.90;;;;;;;;;;5036003;28;20402;-77
2022/03/20 05:39:13;;;;;;;31.03;19.90;;;;;;;;;;5035933;28;20901;-76
2022/03/20 05:41:50;;;;;;;30.03;19.20;;;;;;;;;;5035965;28;20402;-76
2022/03/20 05:44:16;;;;;;;27.53;17.87;;;;;;;;;;5035791;28;20750;-77
2022/03/20 05:46:46;;;;;;;44.17;18.30;;;;;;;;;;5035488;28;20456;-77
2022/03/20 05:49:12;;;;;;;33.27;19.77;;;;;;;;;;5036063;28;20421;-76
2022/03/20 05:51:38;;;;;;;30.50;19.07;;;;;;;;;;5035612;28;20395;-76
2022/03/20 05:54:04;;;;;;;27.67;18.17;;;;;;;;;;5034174;28;20407;-77
2022/03/20 05:59:16;;;;;;;29.90;18.47;;;;;;;;;;5035664;28;20381;-76
2022/03/20 06:01:42;;;;;;;28.47;19.47;;;;;;;;;;5035707;28;20836;-76
2022/03/20 06:04:08;;;;;;;29.10;18.83;;;;;;;;;;5035265;28;20822;-77
2022/03/20 06:06:37;;;;;;;28.03;19.20;;;;;;;;;;5033777;28;20524;-76
2022/03/20 06:09:06;;;;;;;27.53;18.40;;;;;;;;;;5035439;28;20456;-76
2022/03/20 06:11:35;;;;;;;24.57;17.30;;;;;;;;;;5035325;28;20406;-76
2022/03/20 06:14:02;;;;;;;28.37;18.00;;;;;;;;;;5035207;28;20405;-76
2022/03/20 06:16:28;;;;;;;29.20;19.70;;;;;;;;;;5033578;28;20407;-76
2022/03/20 06:18:55;;;;;;;26.80;18.07;;;;;;;;;;5035146;28;20768;-76
2022/03/20 06:21:22;;;;;;;28.27;19.73;;;;;;;;;;5034707;28;20438;-76
2022/03/20 06:23:49;;;;;;;26.53;17.63;;;;;;;;;;5035169;28;20430;-76
2022/03/20 06:26:16;;;;;;;25.00;17.50;;;;;;;;;;5034734;28;20407;-77
2022/03/20 06:28:43;;;;;;;28.27;18.37;;;;;;;;;;5033773;28;20454;-77
2022/03/20 06:31:10;;;;;;;26.67;17.07;;;;;;;;;;5034198;28;20478;-77
2022/03/20 06:33:37;;;;;;;29.43;19.50;;;;;;;;;;5034954;28;20425;-76
2022/03/20 06:36:03;;;;;;;29.57;18.67;;;;;;;;;;5035017;28;20411;-76
2022/03/20 06:38:30;;;;;;;26.90;17.87;;;;;;;;;;5034720;28;20426;-76
2022/03/20 06:40:56;;;;;;;30.60;19.00;;;;;;;;;;5034515;28;20422;-76
2022/03/20 06:43:23;;;;;;;27.90;20.13;;;;;;;;;;5033288;28;20876;-76
2022/03/20 06:45:50;;;;;;;28.80;18.43;;;;;;;;;;5034503;28;20407;-76
2022/03/20 06:48:16;;;;;;;27.43;19.50;;;;;;;;;;5034333;28;20453;-77
2022/03/20 06:50:42;;;;;;;30.20;19.40;;;;;;;;;;5034486;28;20445;-76
2022/03/20 06:53:08;;;;;;;27.27;18.20;;;;;;;;;;5034308;28;20414;-75
2022/03/20 06:55:35;;;;;;;26.70;17.93;;;;;;;;;;5034171;28;20399;-76
2022/03/20 06:58:01;;;;;;;28.43;18.97;;;;;;;;;;5034644;28;20402;-77
2022/03/20 07:00:30;;;;;;;28.20;19.20;;;;;;;;;;5034153;28;20426;-77
2022/03/20 07:02:58;;;;;;;25.13;18.70;;;;;;;;;;5033062;28;20552;-77
2022/03/20 07:05:24;;;;;;;26.13;18.40;;;;;;;;;;5035080;28;20482;-77
2022/03/20 07:07:51;;;;;;;30.67;17.93;;;;;;;;;;5034319;28;20486;-77
2022/03/20 07:10:26;;;;;;;29.97;20.80;;;;;;;;;;5034476;28;20435;-77
2022/03/20 07:13:48;;;;;;;32.77;20.87;;;;;;;;;;5034280;28;20458;-77
2022/03/20 07:15:45;;;;;;;24.70;18.67;;;;;;;;;;5033803;28;20434;-76
2022/03/20 07:18:15;;;;;;;29.53;19.50;;;;;;;;;;5033874;28;20816;-77
2022/03/20 07:20:43;;;;;;;28.43;19.27;;;;;;;;;;5045310;23;20623;-76
2022/03/20 07:23:10;;;;;;;26.17;19.93;;;;;;;;;;5032330;28;20870;-77
2022/03/20 07:31:08;;;;;;;29.10;18.87;;;;;;;;;;5003191;28;20270;-77
2022/03/20 07:33:34;;;;;;;25.80;18.37;;;;;;;;;;5015112;28;20953;-77
2022/03/20 07:36:01;;;;;;;27.43;18.70;;;;;;;;;;5015484;28;20419;-77
2022/03/20 07:38:27;;;;;;;29.60;20.00;;;;;;;;;;5013508;28;20473;-77
2022/03/20 07:40:53;;;;;;;26.97;19.70;;;;;;;;;;5015035;28;20954;-77
2022/03/20 07:43:20;;;;;;;29.13;19.90;;;;;;;;;;5013816;28;20478;-77
2022/03/20 07:45:46;;;;;;;30.00;19.27;;;;;;;;;;5014119;28;20434;-77
2022/03/20 07:48:12;;;;;;;27.53;18.97;;;;;;;;;;5014147;28;20466;-78
2022/03/20 07:50:38;;;;;;;24.53;17.87;;;;;;;;;;5014427;28;20435;-77
2022/03/20 07:53:05;;;;;;;23.67;16.93;;;;;;;;;;5014946;28;20396;-77
2022/03/20 07:55:31;;;;;;;27.97;18.87;;;;;;;;;;5013466;28;20415;-77
2022/03/20 07:58:00;;;;;;;29.10;18.83;;;;;;;;;;5015099;28;20404;-78
2022/03/20 08:00:26;;;;;;;24.13;17.57;;;;;;;;;;5014595;28;20713;-78
2022/03/20 08:02:52;;;;;;;29.10;18.90;;;;;;;;;;5015639;28;20407;-77
2022/03/20 08:05:20;;;;;;;24.23;17.20;;;;;;;;;;5013479;28;20543;-77
2022/03/20 08:07:46;;;;;;;25.20;19.10;;;;;;;;;;5015025;28;20889;-77
2022/03/20 08:10:13;;;;;;;28.00;17.77;;;;;;;;;;5012965;28;20462;-77
2022/03/20 08:12:39;;;;;;;26.30;19.27;;;;;;;;;;5015023;28;20913;-77
2022/03/20 08:15:06;;;;;;;26.70;19.07;;;;;;;;;;5022641;28;20399;-77
2022/03/20 08:17:32;;;;;;;28.30;19.90;;;;;;;;;;5013865;28;20411;-77
2022/03/20 08:20:00;;;;;;;31.27;18.07;;;;;;;;;;5014137;28;20443;-77
2022/03/20 08:22:26;;;;;;;23.67;19.17;;;;;;;;;;5015065;28;20411;-77
2022/03/20 08:24:52;;;;;;;24.63;19.20;;;;;;;;;;5014540;28;20495;-77
2022/03/20 08:27:23;;;;;;;26.73;18.77;;;;;;;;;;5014281;28;20867;-76
2022/03/20 08:29:50;;;;;;;25.67;17.73;;;;;;;;;;5012193;28;20755;-78
2022/03/20 08:32:16;;;;;;;25.23;19.30;;;;;;;;;;5013980;28;20422;-77
2022/03/20 08:34:42;;;;;;;27.50;19.17;;;;;;;;;;5012550;28;20519;-77
2022/03/20 08:37:08;;;;;;;28.43;20.10;;;;;;;;;;5014244;28;20419;-77
2022/03/20 08:39:34;;;;;;;29.30;19.60;;;;;;;;;;5012685;28;20454;-77
2022/03/20 08:42:00;;;;;;;30.00;19.00;;;;;;;;;;5013725;28;20427;-77
2022/03/20 08:44:28;;;;;;;26.90;18.70;;;;;;;;;;5015185;28;20502;-78
2022/03/20 08:46:54;;;;;;;27.20;19.00;;;;;;;;;;5014727;28;20549;-77
2022/03/20 08:49:20;;;;;;;29.00;20.07;;;;;;;;;;5013607;28;20512;-77
2022/03/20 08:51:46;;;;;;;25.13;17.97;;;;;;;;;;5012899;28;20431;-77
2022/03/20 08:54:12;;;;;;;28.93;19.50;;;;;;;;;;5016097;28;20417;-78
2022/03/20 08:56:41;;;;;;;28.70;19.80;;;;;;;;;;5017698;28;20403;-77
2022/03/20 08:59:07;;;;;;;24.57;18.30;;;;;;;;;;5018082;28;20415;-77
2022/03/20 09:01:33;;;;;;;23.63;17.97;;;;;;;;;;5017703;28;20419;-77
2022/03/20 09:04:00;;;;;;;23.20;17.80;;;;;;;;;;5017946;28;20415;-78
2022/03/20 09:06:26;;;;;;;24.63;17.87;;;;;;;;;;5017692;28;20432;-77
2022/03/20 09:08:53;;;;;;;24.17;20.33;;;;;;;;;;5017793;28;20418;-77
2022/03/20 09:11:20;;;;;;;24.83;18.57;;;;;;;;;;5018022;28;20438;-77
2022/03/20 09:13:46;;;;;;;27.67;19.03;;;;;;;;;;5017597;28;20465;-77
2022/03/20 09:19:00;;;;;;;26.43;19.30;;;;;;;;;;5017606;28;20876;-78
2022/03/20 09:21:27;;;;;;;24.87;18.13;;;;;;;;;;5017723;28;20442;-77
2022/03/20 09:23:53;;;;;;;24.10;17.70;;;;;;;;;;5018089;28;20538;-78
2022/03/20 09:26:19;;;;;;;26.03;18.53;;;;;;;;;;5017430;28;20770;-77
2022/03/20 09:28:45;;;;;;;25.23;18.17;;;;;;;;;;5017419;28;20557;-78
2022/03/20 09:31:13;;;;;;;24.53;17.70;;;;;;;;;;5017651;28;20442;-78
2022/03/20 09:33:39;;;;;;;23.37;17.67;;;;;;;;;;5017947;28;20419;-77
2022/03/20 09:36:05;;;;;;;25.20;18.10;;;;;;;;;;5017931;28;20404;-78
2022/03/20 09:38:31;;;;;;;29.43;16.83;;;;;;;;;;5017493;28;20931;-78
2022/03/20 09:40:59;;;;;;;22.90;16.33;;;;;;;;;;5017376;28;20466;-78
2022/03/20 09:43:25;;;;;;;25.97;17.50;;;;;;;;;;5015936;28;20421;-77
2022/03/20 09:45:53;;;;;;;25.20;17.40;;;;;;;;;;5017978;28;20423;-77
2022/03/20 09:48:19;;;;;;;23.50;16.63;;;;;;;;;;5019371;28;20450;-77
2022/03/20 09:50:46;;;;;;;21.07;15.90;;;;;;;;;;5017033;28;20927;-77
2022/03/20 09:53:12;;;;;;;19.40;15.93;;;;;;;;;;5017269;28;20407;-77
2022/03/20 09:55:38;;;;;;;20.60;16.00;;;;;;;;;;5017085;28;20493;-77
2022/03/20 09:58:04;;;;;;;19.00;14.10;;;;;;;;;;5017077;28;20422;-77
2022/03/20 10:00:32;;;;;;;24.40;16.07;;;;;;;;;;5016863;28;20482;-77
2022/03/20 10:02:58;;;;;;;19.93;15.30;;;;;;;;;;5016876;28;20403;-77
2022/03/20 10:05:28;;;;;;;19.77;15.60;;;;;;;;;;5015565;28;20587;-77
2022/03/20 10:07:54;;;;;;;23.03;15.50;;;;;;;;;;5016918;28;20431;-78
2022/03/20 10:10:25;;;;;;;21.47;15.67;;;;;;;;;;5016731;28;21010;-77
2022/03/20 10:12:56;;;;;;;20.77;16.00;;;;;;;;;;5016732;28;20431;-77
2022/03/20 10:15:27;;;;;;;21.40;16.23;;;;;;;;;;5016118;28;20411;-77
2022/03/20 10:18:14;;;;;;;20.40;14.27;;;;;;;;;;5016052;28;20403;-78
2022/03/20 10:21:00;;;;;;;20.47;15.47;;;;;;;;;;5015743;28;20866;-78
2022/03/20 10:23:28;;;;;;;23.73;15.23;;;;;;;;;;5014835;28;20737;-75
2022/03/20 10:25:54;;;;;;;17.60;14.23;;;;;;;;;;5015554;28;20506;-77
2022/03/20 10:28:20;;;;;;;17.97;15.03;;;;;;;;;;5013929;28;20461;-76
2022/03/20 10:30:59;;;;;;;18.63;15.30;;;;;;;;;;5015672;28;20427;-77
2022/03/20 10:33:25;;;;;;;17.30;13.20;;;;;;;;;;5016554;28;20517;-77
2022/03/20 10:36:10;;;;;;;17.40;13.50;;;;;;;;;;5014188;28;20862;-77
2022/03/20 10:38:36;;;;;;;21.57;13.83;;;;;;;;;;5013824;28;20763;-77
2022/03/20 10:41:15;;;;;;;18.90;14.47;;;;;;;;;;5015136;28;20451;-77
2022/03/20 10:43:42;;;;;;;18.20;13.60;;;;;;;;;;5013685;28;20462;-77
2022/03/20 10:46:08;;;;;;;19.10;14.43;;;;;;;;;;5016099;28;20414;-77
2022/03/20 10:48:38;;;;;;;18.53;13.90;;;;;;;;;;5014815;28;20462;-77
2022/03/20 10:51:05;;;;;;;18.97;14.60;;;;;;;;;;5015166;28;20435;-76
2022/03/20 10:53:31;;;;;;;19.77;14.93;;;;;;;;;;5016274;28;20453;-77
2022/03/20 10:55:58;;;;;;;19.90;14.47;;;;;;;;;;5018184;28;20412;-77
2022/03/20 10:58:26;;;;;;;18.70;13.03;;;;;;;;;;5015620;28;20410;-77
2022/03/20 11:00:52;;;;;;;20.70;14.63;;;;;;;;;;5013187;28;20439;-77
2022/03/20 11:03:22;;;;;;;19.20;14.43;;;;;;;;;;5014211;28;20418;-77
2022/03/20 11:05:49;;;;;;;17.87;14.20;;;;;;;;;;5014250;28;20458;-76
2022/03/20 11:08:15;;;;;;;17.20;13.93;;;;;;;;;;5014236;28;20872;-77
2022/03/20 11:10:44;;;;;;;21.13;14.23;;;;;;;;;;5013635;28;20847;-77
2022/03/20 11:13:12;;;;;;;19.57;15.13;;;;;;;;;;5014290;28;20473;-77
2022/03/20 11:15:38;;;;;;;16.70;13.30;;;;;;;;;;5013530;28;20404;-77
2022/03/20 11:18:05;;;;;;;21.00;13.03;;;;;;;;;;5013414;28;20499;-77
2022/03/20 11:20:31;;;;;;;21.43;13.80;;;;;;;;;;5012421;28;20566;-77
2022/03/20 11:23:01;;;;;;;19.67;13.50;;;;;;;;;;5012691;28;20419;-77
2022/03/20 11:25:30;;;;;;;16.40;13.50;;;;;;;;;;5014343;28;20415;-77
2022/03/20 11:28:01;;;;;;;18.27;14.27;;;;;;;;;;5012375;28;20451;-78
2022/03/20 11:30:31;;;;;;;20.00;13.70;;;;;;;;;;5013622;28;20477;-77
2022/03/20 11:33:00;;;;;;;16.33;13.10;;;;;;;;;;5012300;28;20407;-76
2022/03/20 11:35:29;;;;;;;19.10;13.40;;;;;;;;;;5013871;28;20927;-76
2022/03/20 11:37:58;;;;;;;17.43;13.57;;;;;;;;;;5013657;28;20490;-77
2022/03/20 11:40:26;;;;;;;15.87;13.13;;;;;;;;;;5013626;28;20478;-76
2022/03/20 11:43:12;;;;;;;20.10;14.57;;;;;;;;;;5013428;28;20404;-77
2022/03/20 11:45:38;;;;;;;16.83;13.30;;;;;;;;;;5011869;28;20934;-76
2022/03/20 11:48:15;;;;;;;19.07;14.83;;;;;;;;;;5012070;28;20455;-77
2022/03/20 11:50:42;;;;;;;18.20;13.77;;;;;;;;;;5013398;28;20506;-76
2022/03/20 11:53:09;;;;;;;15.40;13.10;;;;;;;;;;5012325;28;20434;-76
2022/03/20 11:55:40;;;;;;;15.37;13.20;;;;;;;;;;5011980;28;20407;-76
2022/03/20 11:58:09;;;;;;;16.10;13.00;;;;;;;;;;5013397;28;20502;-78
2022/03/20 12:00:36;;;;;;;18.37;13.73;;;;;;;;;;5012907;28;20474;-77
2022/03/20 12:03:14;;;;;;;18.50;13.47;;;;;;;;;;5012899;28;20892;-76
2022/03/20 12:05:50;;;;;;;15.23;12.40;;;;;;;;;;5013094;28;20423;-76
2022/03/20 12:08:34;;;;;;;18.40;13.97;;;;;;;;;;5013331;28;20881;-77
2022/03/20 12:11:18;;;;;;;18.60;13.20;;;;;;;;;;5013096;28;20423;-76
2022/03/20 12:14:03;;;;;;;16.73;12.67;;;;;;;;;;5012922;28;20410;-76
2022/03/20 12:16:47;;;;;;;18.90;15.33;;;;;;;;;;5011643;28;20917;-76
2022/03/20 12:19:15;;;;;;;17.13;14.03;;;;;;;;;;5013079;28;20396;-76
2022/03/20 12:21:57;;;;;;;18.97;13.53;;;;;;;;;;5012755;28;20442;-76
2022/03/20 12:24:35;;;;;;;16.03;12.63;;;;;;;;;;5011620;28;20422;-76
2022/03/20 12:27:23;;;;;;;18.07;13.40;;;;;;;;;;5012679;28;20455;-76
2022/03/20 12:29:58;;;;;;;16.40;11.77;;;;;;;;;;5017113;28;20398;-76
2022/03/20 12:32:25;;;;;;;17.80;13.70;;;;;;;;;;5016869;28;20537;-76
2022/03/20 12:35:00;;;;;;;14.03;12.23;;;;;;;;;;5016039;28;20421;-77
2022/03/20 12:37:29;;;;;;;14.53;12.13;;;;;;;;;;5015640;28;21073;-77
2022/03/20 12:39:56;;;;;;;15.73;13.37;;;;;;;;;;5017098;28;20447;-77
2022/03/20 12:42:23;;;;;;;16.97;12.37;;;;;;;;;;5017174;28;20867;-76
2022/03/20 12:44:50;;;;;;;15.50;12.80;;;;;;;;;;5016494;28;20442;-77
2022/03/20 12:47:17;;;;;;;18.00;13.00;;;;;;;;;;5017505;28;20982;-77
2022/03/20 12:49:43;;;;;;;14.13;12.23;;;;;;;;;;5015863;28;20417;-77
2022/03/20 12:52:10;;;;;;;16.90;12.07;;;;;;;;;;5017100;28;20399;-77
2022/03/20 12:54:36;;;;;;;16.60;12.37;;;;;;;;;;5017285;28;20476;-77
2022/03/20 12:57:04;;;;;;;15.97;12.50;;;;;;;;;;5016960;28;20414;-77
2022/03/20 12:59:30;;;;;;;16.23;12.57;;;;;;;;;;5017404;28;20411;-77
2022/03/20 13:01:57;;;;;;;16.40;13.00;;;;;;;;;;5016875;28;20798;-77
2022/03/20 13:04:23;;;;;;;15.87;12.10;;;;;;;;;;5016694;28;20438;-77
2022/03/20 13:06:50;;;;;;;18.77;12.60;;;;;;;;;;5016686;28;20533;-77
2022/03/20 13:09:16;;;;;;;15.50;12.80;;;;;;;;;;5016956;28;20534;-77
2022/03/20 13:11:52;;;;;;;15.70;12.30;;;;;;;;;;5016630;28;20442;-77
2022/03/20 13:14:18;;;;;;;16.53;12.47;;;;;;;;;;5016788;28;20430;-77
2022/03/20 13:16:53;;;;;;;15.67;12.30;;;;;;;;;;5015625;28;20991;-77
2022/03/20 13:19:27;;;;;;;16.30;12.60;;;;;;;;;;5016542;28;20449;-77
2022/03/20 13:21:53;;;;;;;17.37;14.23;;;;;;;;;;5029107;23;20495;-77
2022/03/20 13:24:32;;;;;;;15.47;13.07;;;;;;;;;;5016247;28;20395;-77
2022/03/20 13:26:59;;;;;;;15.73;12.90;;;;;;;;;;5016402;28;20958;-77
2022/03/20 13:29:25;;;;;;;16.37;13.07;;;;;;;;;;5016387;28;20416;-77
2022/03/20 13:32:01;;;;;;;18.93;12.80;;;;;;;;;;5016410;28;20419;-77
2022/03/20 13:34:28;;;;;;;14.30;12.23;;;;;;;;;;5016861;28;20899;-77
2022/03/20 13:36:54;;;;;;;14.60;12.40;;;;;;;;;;5016288;28;20430;-77
2022/03/20 13:39:21;;;;;;;17.50;12.30;;;;;;;;;;5015131;28;20392;-77
2022/03/20 13:41:47;;;;;;;17.10;12.90;;;;;;;;;;5015845;28;20510;-77
2022/03/20 13:44:15;;;;;;;19.40;12.47;;;;;;;;;;5016172;28;20470;-77
2022/03/20 13:46:43;;;;;;;17.17;12.60;;;;;;;;;;5015875;28;20431;-77
2022/03/20 13:49:13;;;;;;;16.47;12.33;;;;;;;;;;5016346;28;20764;-78
2022/03/20 13:51:42;;;;;;;13.73;11.90;;;;;;;;;;5017141;28;20430;-78
2022/03/20 13:54:12;;;;;;;17.73;13.03;;;;;;;;;;5016914;28;20409;-78
2022/03/20 13:56:38;;;;;;;17.43;12.70;;;;;;;;;;5018053;28;20478;-78
2022/03/20 13:59:06;;;;;;;16.83;13.20;;;;;;;;;;5018256;28;20399;-78
2022/03/20 14:01:43;;;;;;;16.40;13.07;;;;;;;;;;5017299;28;20426;-77
2022/03/20 14:04:10;;;;;;;15.50;12.67;;;;;;;;;;5015877;28;20779;-77
2022/03/20 14:06:37;;;;;;;18.53;13.60;;;;;;;;;;5014086;28;20399;-76
2022/03/20 14:09:03;;;;;;;15.17;12.47;;;;;;;;;;5015577;28;20418;-77
2022/03/20 14:11:35;;;;;;;18.90;12.10;;;;;;;;;;5015772;28;20777;-76
2022/03/20 14:14:02;;;;;;;14.70;12.27;;;;;;;;;;5017205;28;20388;-78
2022/03/20 14:16:28;;;;;;;15.80;13.50;;;;;;;;;;5016194;28;20408;-76
2022/03/20 14:18:54;;;;;;;19.07;11.60;;;;;;;;;;5015650;28;20819;-76
2022/03/20 14:21:21;;;;;;;16.17;12.50;;;;;;;;;;5015350;28;20474;-77
2022/03/20 14:23:56;;;;;;;15.17;12.37;;;;;;;;;;5015876;28;20418;-75
2022/03/20 14:26:23;;;;;;;16.73;11.77;;;;;;;;;;5015897;28;20490;-77
2022/03/20 14:29:02;;;;;;;15.73;12.77;;;;;;;;;;5014444;28;20446;-77
2022/03/20 14:39:26;;;;;;;17.80;13.60;;;;;;;;;;5018056;28;20395;-77
2022/03/20 14:40:08;;;;;;;17.83;12.40;;;;;;;;;;4974782;28;20544;-76
2022/03/20 14:42:34;;;;;;;15.73;12.33;;;;;;;;;;4974875;28;20394;-77
2022/03/20 14:45:04;;;;;;;14.77;12.37;;;;;;;;;;4994861;28;20404;-76
2022/03/20 14:47:30;;;;;;;15.17;13.33;;;;;;;;;;5015637;28;20447;-77
2022/03/20 14:49:56;;;;;;;17.50;11.73;;;;;;;;;;5015552;28;20888;-76
2022/03/20 14:52:23;;;;;;;15.80;12.10;;;;;;;;;;5014943;28;20454;-76
2022/03/20 14:54:52;;;;;;;17.80;12.10;;;;;;;;;;5015289;28;20392;-77
2022/03/20 14:57:19;;;;;;;17.40;12.40;;;;;;;;;;5015539;28;20462;-77
2022/03/20 14:59:45;;;;;;;18.87;13.33;;;;;;;;;;5016086;28;20446;-78